createdAt,value
2022-12-18T00:02:02.828Z,-4.63
2022-12-18T00:04:31.014Z,-4.64
2022-12-18T00:06:58.610Z,-4.64
2022-12-18T00:09:26.226Z,-4.52
2022-12-18T00:14:46.698Z,-4.68
2022-12-18T00:17:13.910Z,-4.95
2022-12-18T00:19:41.370Z,-4.98
2022-12-18T00:22:08.853Z,-4.77
2022-12-18T00:24:36.438Z,-4.82
2022-12-18T00:27:03.864Z,-4.77
2022-12-18T00:29:31.490Z,-4.76
2022-12-18T00:31:58.775Z,-4.67
2022-12-18T00:34:26.526Z,-4.60
2022-12-18T00:36:54.109Z,-4.47
2022-12-18T00:39:23.413Z,-4.66
2022-12-18T00:42:09.368Z,-4.70
2022-12-18T00:44:37.029Z,-4.69
2022-12-18T00:47:04.776Z,-4.72
2022-12-18T00:49:32.384Z,-4.69
2022-12-18T00:51:59.686Z,-4.77
2022-12-18T00:54:27.268Z,-4.74
2022-12-18T00:56:56.171Z,-4.73
2022-12-18T00:59:23.721Z,-4.78
2022-12-18T01:01:51.666Z,-4.63
2022-12-18T01:04:21.596Z,-4.78
2022-12-18T01:06:49.323Z,-4.74
2022-12-18T01:09:16.880Z,-4.78
2022-12-18T01:11:44.046Z,-4.86
2022-12-18T01:14:12.174Z,-4.88
2022-12-18T01:16:39.579Z,-4.73
2022-12-18T01:19:07.157Z,-4.68
2022-12-18T01:21:34.822Z,-4.60
2022-12-18T01:24:05.828Z,-4.46
2022-12-18T01:26:33.148Z,-4.43
2022-12-18T01:29:00.662Z,-4.41
2022-12-18T01:31:30.359Z,-4.37
2022-12-18T01:33:58.976Z,-4.30
2022-12-18T01:36:32.182Z,-4.32
2022-12-18T01:39:06.081Z,-4.14
2022-12-18T01:41:52.824Z,-4.10
2022-12-18T01:44:57.490Z,-4.08
2022-12-18T01:47:30.197Z,-4.06
2022-12-18T01:50:00.678Z,-4.11
2022-12-18T01:52:30.250Z,-3.89
2022-12-18T01:54:58.291Z,-3.83
2022-12-18T01:57:28.102Z,-3.81
2022-12-18T02:00:01.842Z,-3.74
2022-12-18T02:02:44.871Z,-3.63
2022-12-18T02:05:18.879Z,-3.61
2022-12-18T02:08:13.225Z,-3.63
2022-12-18T02:10:45.496Z,-3.68
2022-12-18T02:13:29.135Z,-3.67
2022-12-18T02:16:09.497Z,-3.68
2022-12-18T02:18:42.046Z,-3.67
2022-12-18T02:21:21.774Z,-3.72
2022-12-18T02:24:05.935Z,-3.61
2022-12-18T02:26:43.682Z,-3.67
2022-12-18T02:29:34.016Z,-3.65
2022-12-18T02:32:05.514Z,-3.56
2022-12-18T02:34:37.811Z,-3.41
2022-12-18T02:37:11.776Z,-3.47
2022-12-18T02:39:41.434Z,-3.47
2022-12-18T02:42:11.981Z,-3.41
2022-12-18T02:44:52.757Z,-3.35
2022-12-18T02:47:32.312Z,-3.31
2022-12-18T02:50:18.174Z,-3.32
2022-12-18T02:53:07.250Z,-3.32
2022-12-18T02:55:52.691Z,-3.29
2022-12-18T02:58:48.695Z,-3.26
2022-12-18T03:01:40.275Z,-3.33
2022-12-18T03:04:18.490Z,-3.16
2022-12-18T03:06:54.386Z,-3.16
2022-12-18T03:09:29.348Z,-3.21
2022-12-18T03:12:23.738Z,-3.03
2022-12-18T03:15:19.321Z,-3.05
2022-12-18T03:18:00.521Z,-3.09
2022-12-18T03:20:35.486Z,-2.92
2022-12-18T03:23:12.737Z,-3.00
2022-12-18T03:25:44.049Z,-3.04
2022-12-18T03:28:15.983Z,-2.97
2022-12-18T03:30:47.255Z,-2.91
2022-12-18T03:33:39.626Z,-2.94
2022-12-18T03:36:07.945Z,-2.90
2022-12-18T03:38:35.418Z,-2.90
2022-12-18T03:41:31.041Z,-2.90
2022-12-18T03:44:28.823Z,-2.94
2022-12-18T03:47:16.853Z,-2.93
2022-12-18T03:50:12.322Z,-2.92
2022-12-18T03:53:10.181Z,-2.88
2022-12-18T03:55:39.759Z,-2.91
2022-12-18T03:58:11.185Z,-2.94
2022-12-18T04:00:55.690Z,-2.94
2022-12-18T04:03:37.527Z,-2.82
2022-12-18T04:06:08.624Z,-2.88
2022-12-18T04:08:36.929Z,-2.85
2022-12-18T04:11:07.677Z,-2.95
2022-12-18T04:13:39.053Z,-2.90
2022-12-18T04:16:11.760Z,-2.81
2022-12-18T04:18:42.562Z,-2.86
2022-12-18T04:21:11.485Z,-2.85
2022-12-18T04:23:39.661Z,-2.81
2022-12-18T04:26:07.987Z,-2.74
2022-12-18T04:28:44.531Z,-2.75
2022-12-18T04:31:12.838Z,-2.96
2022-12-18T04:33:41.270Z,-2.94
2022-12-18T04:36:10.112Z,-2.91
2022-12-18T04:38:39.459Z,-2.98
2022-12-18T04:41:10.917Z,-2.85
2022-12-18T04:43:38.686Z,-2.91
2022-12-18T04:46:07.667Z,-2.91
2022-12-18T04:48:35.850Z,-2.92
2022-12-18T04:51:04.104Z,-2.99
2022-12-18T04:53:31.710Z,-2.95
2022-12-18T04:56:11.131Z,-2.94
2022-12-18T04:58:39.327Z,-2.96
2022-12-18T05:01:08.446Z,-3.07
2022-12-18T05:03:37.398Z,-3.17
2022-12-18T05:06:06.251Z,-3.33
2022-12-18T05:08:34.277Z,-3.31
2022-12-18T05:11:02.898Z,-3.40
2022-12-18T05:13:31.737Z,-3.55
2022-12-18T05:15:59.197Z,-3.46
2022-12-18T05:18:27.542Z,-3.38
2022-12-18T05:20:55.261Z,-3.45
2022-12-18T05:23:25.042Z,-3.40
2022-12-18T05:26:04.389Z,-3.37
2022-12-18T05:28:33.271Z,-3.47
2022-12-18T05:31:03.228Z,-3.46
2022-12-18T05:33:33.055Z,-3.45
2022-12-18T05:36:03.852Z,-3.51
2022-12-18T05:38:33.274Z,-3.50
2022-12-18T05:41:00.452Z,-3.44
2022-12-18T05:43:28.849Z,-3.51
2022-12-18T05:45:56.827Z,-3.54
2022-12-18T05:48:24.718Z,-3.60
2022-12-18T05:50:52.367Z,-3.54
2022-12-18T05:53:21.453Z,-3.61
2022-12-18T05:55:49.114Z,-3.58
2022-12-18T05:58:17.141Z,-3.58
2022-12-18T06:00:46.385Z,-3.59
2022-12-18T06:03:14.609Z,-3.65
2022-12-18T06:05:44.725Z,-3.80
2022-12-18T06:08:13.612Z,-3.96
2022-12-18T06:10:41.970Z,-4.01
2022-12-18T06:13:09.931Z,-4.06
2022-12-18T06:15:38.299Z,-4.12
2022-12-18T06:18:06.150Z,-4.14
2022-12-18T06:20:34.036Z,-4.16
2022-12-18T06:23:01.991Z,-4.16
2022-12-18T06:25:29.135Z,-4.29
2022-12-18T06:27:56.676Z,-4.19
2022-12-18T06:30:24.099Z,-4.29
2022-12-18T06:32:56.377Z,-4.49
2022-12-18T06:35:24.851Z,-4.59
2022-12-18T06:37:52.579Z,-4.60
2022-12-18T06:40:19.983Z,-4.80
2022-12-18T06:42:47.560Z,-4.97
2022-12-18T06:45:18.110Z,-4.86
2022-12-18T06:47:45.673Z,-4.82
2022-12-18T06:50:13.646Z,-4.86
2022-12-18T06:52:45.026Z,-4.86
2022-12-18T06:55:12.792Z,-4.94
2022-12-18T06:57:40.458Z,-4.96
2022-12-18T07:00:08.673Z,-5.04
2022-12-18T07:02:40.643Z,-5.04
2022-12-18T07:05:10.897Z,-4.95
2022-12-18T07:07:38.878Z,-5.01
2022-12-18T07:10:06.419Z,-5.06
2022-12-18T07:12:34.131Z,-5.07
2022-12-18T07:15:01.402Z,-5.08
2022-12-18T07:17:29.440Z,-5.04
2022-12-18T07:19:56.735Z,-5.16
2022-12-18T07:22:26.278Z,-5.22
2022-12-18T07:24:53.407Z,-5.18
2022-12-18T07:27:20.945Z,-5.12
2022-12-18T07:29:49.176Z,-5.24
2022-12-18T07:32:16.823Z,-5.22
2022-12-18T07:34:44.121Z,-5.22
2022-12-18T07:37:11.676Z,-5.27
2022-12-18T07:39:38.964Z,-5.25
2022-12-18T07:42:28.442Z,-5.33
2022-12-18T07:44:55.647Z,-5.47
2022-12-18T07:47:24.023Z,-5.64
2022-12-18T07:49:51.446Z,-5.76
2022-12-18T07:52:25.617Z,-5.67
2022-12-18T07:54:53.311Z,-5.39
2022-12-18T07:57:48.945Z,-5.30
2022-12-18T08:00:09.148Z,-5.38
2022-12-18T08:02:40.088Z,-5.45
2022-12-18T08:05:07.630Z,-5.32
2022-12-18T08:07:35.189Z,-5.32
2022-12-18T08:10:02.347Z,-5.23
2022-12-18T08:12:29.930Z,-5.26
2022-12-18T08:14:57.100Z,-5.15
2022-12-18T08:17:24.791Z,-5.04
2022-12-18T08:19:51.927Z,-4.83
2022-12-18T08:22:19.753Z,-4.92
2022-12-18T08:24:46.990Z,-4.83
2022-12-18T08:27:29.308Z,-4.79
2022-12-18T08:29:57.737Z,-4.51
2022-12-18T08:32:27.512Z,-4.47
2022-12-18T08:34:54.895Z,-4.39
2022-12-18T08:37:22.761Z,-4.29
2022-12-18T08:39:49.972Z,-4.25
2022-12-18T08:42:36.139Z,-4.25
2022-12-18T08:45:04.435Z,-3.98
2022-12-18T08:47:32.350Z,-4.08
2022-12-18T08:49:59.671Z,-3.77
2022-12-18T08:52:27.654Z,-4.00
2022-12-18T08:54:54.999Z,-3.98
2022-12-18T08:57:22.865Z,-3.76
2022-12-18T08:59:50.464Z,-3.89
2022-12-18T09:02:18.436Z,-4.10
2022-12-18T09:04:53.754Z,-3.81
2022-12-18T09:07:23.202Z,-3.87
2022-12-18T09:09:50.788Z,-3.67
2022-12-18T09:12:18.454Z,-3.96
2022-12-18T09:14:46.078Z,-3.65
2022-12-18T09:17:13.989Z,-3.49
2022-12-18T09:19:42.068Z,-3.65
2022-12-18T09:22:10.724Z,-3.78
2022-12-18T09:24:38.027Z,-3.84
2022-12-18T09:27:05.801Z,-4.06
2022-12-18T09:29:33.880Z,-3.99
2022-12-18T09:32:01.501Z,-4.16
2022-12-18T09:34:28.807Z,-3.96
2022-12-18T09:36:56.558Z,-3.91
2022-12-18T09:39:24.468Z,-4.10
2022-12-18T09:41:58.420Z,-3.93
2022-12-18T09:44:44.942Z,-3.56
2022-12-18T09:47:31.923Z,-3.61
2022-12-18T09:50:19.013Z,-3.70
2022-12-18T09:52:51.565Z,-3.66
2022-12-18T09:55:21.564Z,-3.63
2022-12-18T09:57:54.235Z,-4.01
2022-12-18T10:00:24.612Z,-3.69
2022-12-18T10:03:04.696Z,-3.72
2022-12-18T10:05:55.164Z,-3.46
2022-12-18T10:08:38.155Z,-3.13
2022-12-18T10:11:27.486Z,-3.17
2022-12-18T10:14:00.767Z,-2.45
2022-12-18T10:16:37.756Z,-2.81
2022-12-18T10:19:27.121Z,-2.65
2022-12-18T10:22:00.657Z,-2.53
2022-12-18T10:24:57.667Z,-2.44
2022-12-18T10:27:27.904Z,-2.37
2022-12-18T10:29:56.550Z,-2.85
2022-12-18T10:32:26.304Z,-2.66
2022-12-18T10:35:00.178Z,-2.83
2022-12-18T10:37:30.257Z,-2.45
2022-12-18T10:40:10.128Z,-2.55
2022-12-18T10:42:37.849Z,-2.46
2022-12-18T10:45:12.427Z,-2.57
2022-12-18T10:47:46.998Z,-2.65
2022-12-18T10:51:09.895Z,-2.55
2022-12-18T10:53:30.987Z,-2.62
2022-12-18T10:56:03.580Z,-2.48
2022-12-18T10:58:38.149Z,-2.68
2022-12-18T11:01:18.049Z,-2.81
2022-12-18T11:03:56.382Z,-2.74
2022-12-18T11:06:28.158Z,-2.95
2022-12-18T11:09:32.976Z,-2.47
2022-12-18T11:12:19.136Z,-2.80
2022-12-18T11:14:58.801Z,-2.73
2022-12-18T11:17:36.841Z,-2.84
2022-12-18T11:20:10.768Z,-2.87
2022-12-18T11:22:39.535Z,-2.86
2022-12-18T11:25:34.546Z,-2.42
2022-12-18T11:28:06.639Z,-2.81
2022-12-18T11:30:37.117Z,-2.11
2022-12-18T11:33:13.888Z,-2.66
2022-12-18T11:35:44.340Z,-2.69
2022-12-18T11:38:37.153Z,-2.71
2022-12-18T11:41:15.770Z,-2.82
2022-12-18T11:44:06.428Z,-2.67
2022-12-18T11:46:38.854Z,-2.52
2022-12-18T11:49:29.799Z,-2.49
2022-12-18T11:52:05.607Z,-2.55
2022-12-18T11:54:33.374Z,-2.38
2022-12-18T11:57:27.526Z,-2.57
2022-12-18T12:00:10.657Z,-2.85
2022-12-18T12:03:10.130Z,-2.65
2022-12-18T12:05:52.558Z,-2.82
2022-12-18T12:08:30.937Z,-3.01
2022-12-18T12:11:17.381Z,-2.92
2022-12-18T12:14:04.974Z,-3.02
2022-12-18T12:16:54.673Z,-2.82
2022-12-18T12:19:40.411Z,-2.97
2022-12-18T12:22:20.336Z,-2.79
2022-12-18T12:24:53.854Z,-2.87
2022-12-18T12:27:24.605Z,-2.97
2022-12-18T12:30:10.270Z,-2.77
2022-12-18T12:33:02.132Z,-2.59
2022-12-18T12:35:47.893Z,-2.74
2022-12-18T12:38:30.432Z,-2.75
2022-12-18T12:41:05.530Z,-2.79
2022-12-18T12:46:32.495Z,-2.37
2022-12-18T12:49:05.443Z,-2.32
2022-12-18T12:51:41.361Z,-2.73
2022-12-18T12:54:25.931Z,-2.59
2022-12-18T12:57:31.840Z,-2.61
2022-12-18T13:00:07.756Z,-2.24
2022-12-18T13:02:44.456Z,-2.96
2022-12-18T13:05:40.085Z,-2.81
2022-12-18T13:08:12.668Z,-2.46
2022-12-18T13:10:45.272Z,-2.52
2022-12-18T13:13:23.610Z,-3.13
2022-12-18T13:13:43.127Z,-2.49
2022-12-18T13:19:10.422Z,-3.50
2022-12-18T13:21:39.729Z,-3.78
2022-12-18T13:24:23.156Z,-3.87
2022-12-18T13:26:54.822Z,-3.76
2022-12-18T13:29:47.420Z,-3.86
2022-12-18T13:32:26.567Z,-3.78
2022-12-18T13:35:28.163Z,-3.85
2022-12-18T13:37:56.824Z,-3.94
2022-12-18T13:40:48.909Z,-4.13
2022-12-18T13:43:29.603Z,-4.18
2022-12-18T13:46:26.980Z,-4.23
2022-12-18T13:48:59.901Z,-4.26
2022-12-18T13:51:28.025Z,-4.10
2022-12-18T13:54:00.317Z,-4.17
2022-12-18T13:56:31.633Z,-4.18
2022-12-18T13:59:25.342Z,-4.29
2022-12-18T14:02:00.978Z,-4.33
2022-12-18T14:04:35.268Z,-4.52
2022-12-18T14:07:08.723Z,-4.54
2022-12-18T14:09:42.051Z,-4.60
2022-12-18T14:12:38.319Z,-4.31
2022-12-18T14:15:16.297Z,-4.67
2022-12-18T14:17:44.222Z,-4.68
2022-12-18T14:20:16.706Z,-4.66
2022-12-18T14:22:46.345Z,-4.76
2022-12-18T14:25:14.153Z,-4.72
2022-12-18T14:28:12.414Z,-4.69
2022-12-18T14:30:42.879Z,-4.78
2022-12-18T14:33:13.109Z,-4.80
2022-12-18T14:35:54.089Z,-5.08
2022-12-18T14:38:38.401Z,-4.93
2022-12-18T14:41:06.121Z,-4.99
2022-12-18T14:43:36.155Z,-5.11
2022-12-18T14:46:06.446Z,-4.94
2022-12-18T14:48:38.797Z,-5.36
2022-12-18T14:51:08.239Z,-5.34
2022-12-18T14:53:42.293Z,-5.55
2022-12-18T14:56:18.513Z,-5.26
2022-12-18T14:58:51.081Z,-5.55
2022-12-18T15:01:25.346Z,-5.72
2022-12-18T15:03:55.076Z,-5.74
2022-12-18T15:06:31.411Z,-5.57
2022-12-18T15:09:01.774Z,-5.56
2022-12-18T15:11:37.624Z,-5.55
2022-12-18T15:14:35.876Z,-5.49
2022-12-18T15:17:17.644Z,-5.46
2022-12-18T15:19:46.725Z,-5.74
2022-12-18T15:22:24.605Z,-5.71
2022-12-18T15:24:52.863Z,-5.93
2022-12-18T15:27:31.033Z,-6.07
2022-12-18T15:30:10.733Z,-5.98
2022-12-18T15:32:42.919Z,-6.21
2022-12-18T15:35:36.858Z,-6.12
2022-12-18T15:38:04.772Z,-6.26
2022-12-18T15:40:34.528Z,-6.27
2022-12-18T15:43:21.065Z,-6.34
2022-12-18T15:45:48.416Z,-6.37
2022-12-18T15:48:23.771Z,-6.24
2022-12-18T15:50:53.163Z,-6.32
2022-12-18T15:53:21.064Z,-6.48
2022-12-18T15:56:07.010Z,-6.47
2022-12-18T15:58:34.827Z,-6.62
2022-12-18T16:01:02.763Z,-6.71
2022-12-18T16:03:31.233Z,-6.79
2022-12-18T16:06:01.332Z,-6.73
2022-12-18T16:08:31.418Z,-6.76
2022-12-18T16:11:01.382Z,-6.54
2022-12-18T16:13:31.263Z,-6.91
2022-12-18T16:15:59.157Z,-6.75
2022-12-18T16:18:27.162Z,-7.06
2022-12-18T16:20:54.792Z,-7.01
2022-12-18T16:23:22.982Z,-7.05
2022-12-18T16:25:50.562Z,-7.03
2022-12-18T16:28:18.333Z,-7.22
2022-12-18T16:30:46.257Z,-7.05
2022-12-18T16:33:14.357Z,-7.12
2022-12-18T16:35:41.970Z,-7.35
2022-12-18T16:38:10.945Z,-7.30
2022-12-18T16:40:59.387Z,-7.22
2022-12-18T16:43:27.599Z,-7.34
2022-12-18T16:45:58.358Z,-7.35
2022-12-18T16:48:26.416Z,-7.46
2022-12-18T16:51:02.135Z,-7.53
2022-12-18T16:53:30.682Z,-7.58
2022-12-18T16:55:58.785Z,-7.71
2022-12-18T16:58:26.919Z,-7.71
2022-12-18T17:00:54.775Z,-7.55
2022-12-18T17:03:23.024Z,-7.74
2022-12-18T17:05:53.244Z,-7.72
2022-12-18T17:08:21.550Z,-7.78
2022-12-18T17:10:49.437Z,-7.92
2022-12-18T17:13:20.263Z,-8.13
2022-12-18T17:15:51.510Z,-8.07
2022-12-18T17:18:19.426Z,-7.98
2022-12-18T17:20:46.823Z,-8.16
2022-12-18T17:23:14.762Z,-7.94
2022-12-18T17:25:42.411Z,-7.89
2022-12-18T17:28:10.391Z,-8.27
2022-12-18T17:30:37.915Z,-8.23
2022-12-18T17:33:06.255Z,-8.25
2022-12-18T17:35:33.884Z,-8.59
2022-12-18T17:38:02.101Z,-8.34
2022-12-18T17:40:44.541Z,-8.47
2022-12-18T17:43:14.004Z,-8.48
2022-12-18T17:45:41.603Z,-8.68
2022-12-18T17:48:09.685Z,-8.71
2022-12-18T17:50:37.003Z,-8.74
2022-12-18T17:53:04.823Z,-8.73
2022-12-18T17:55:32.254Z,-8.65
2022-12-18T17:58:00.673Z,-8.90
2022-12-18T18:00:28.380Z,-8.87
2022-12-18T18:02:56.710Z,-9.08
2022-12-18T18:05:24.317Z,-9.18
2022-12-18T18:07:52.419Z,-9.03
2022-12-18T18:10:20.618Z,-9.10
2022-12-18T18:13:06.823Z,-9.14
2022-12-18T18:15:34.272Z,-9.08
2022-12-18T18:18:02.837Z,-9.19
2022-12-18T18:20:30.711Z,-9.18
2022-12-18T18:22:58.622Z,-9.03
2022-12-18T18:25:26.218Z,-9.13
2022-12-18T18:27:54.357Z,-9.05
2022-12-18T18:30:22.028Z,-9.04
2022-12-18T18:32:50.438Z,-9.08
2022-12-18T18:35:52.390Z,-9.09
2022-12-18T18:38:08.782Z,-9.08
2022-12-18T18:40:36.275Z,-8.98
2022-12-18T18:43:04.132Z,-8.98
2022-12-18T18:45:33.823Z,-9.04
2022-12-18T18:48:02.213Z,-9.09
2022-12-18T18:50:29.786Z,-8.92
2022-12-18T18:52:58.007Z,-9.03
2022-12-18T18:55:25.974Z,-9.05
2022-12-18T18:57:53.937Z,-9.08
2022-12-18T19:00:21.334Z,-9.08
2022-12-18T19:02:49.228Z,-9.08
2022-12-18T19:05:19.730Z,-9.08
2022-12-18T19:07:47.492Z,-9.10
2022-12-18T19:10:15.134Z,-9.06
2022-12-18T19:13:01.916Z,-9.03
2022-12-18T19:15:29.270Z,-8.98
2022-12-18T19:17:57.070Z,-8.87
2022-12-18T19:20:24.435Z,-8.81
2022-12-18T19:22:55.697Z,-8.80
2022-12-18T19:25:40.410Z,-8.82
2022-12-18T19:28:22.199Z,-8.72
2022-12-18T19:30:54.512Z,-8.79
2022-12-18T19:33:43.033Z,-8.82
2022-12-18T19:36:14.324Z,-8.71
2022-12-18T19:38:44.856Z,-8.62
2022-12-18T19:41:14.779Z,-8.73
2022-12-18T19:43:43.497Z,-8.54
2022-12-18T19:46:15.049Z,-8.48
2022-12-18T19:48:45.292Z,-8.62
2022-12-18T19:51:21.712Z,-8.52
2022-12-18T19:53:59.477Z,-8.64
2022-12-18T19:56:32.501Z,-8.66
2022-12-18T19:59:00.937Z,-8.69
2022-12-18T20:01:33.685Z,-8.58
2022-12-18T20:04:02.349Z,-8.60
2022-12-18T20:06:47.469Z,-8.60
2022-12-18T20:09:15.950Z,-8.60
2022-12-18T20:11:47.219Z,-8.50
2022-12-18T20:14:22.892Z,-8.42
2022-12-18T20:16:52.638Z,-8.36
2022-12-18T20:19:21.949Z,-8.54
2022-12-18T20:21:50.513Z,-8.50
2022-12-18T20:24:18.696Z,-8.48
2022-12-18T20:26:49.029Z,-8.57
2022-12-18T20:29:23.271Z,-8.46
2022-12-18T20:31:51.590Z,-8.57
2022-12-18T20:34:19.431Z,-8.50
2022-12-18T20:36:47.014Z,-8.58
2022-12-18T20:39:16.431Z,-8.50
2022-12-18T20:41:45.449Z,-8.43
2022-12-18T20:44:22.797Z,-8.39
2022-12-18T20:46:57.056Z,-8.54
2022-12-18T20:49:26.755Z,-8.52
2022-12-18T20:51:56.668Z,-8.45
2022-12-18T20:54:27.088Z,-8.39
2022-12-18T20:56:55.729Z,-8.36
2022-12-18T20:59:25.830Z,-8.35
2022-12-18T21:01:54.795Z,-8.41
2022-12-18T21:04:22.614Z,-8.28
2022-12-18T21:06:57.829Z,-8.29
2022-12-18T21:09:29.160Z,-8.26
2022-12-18T21:12:32.939Z,-8.26
2022-12-18T21:15:09.317Z,-8.20
2022-12-18T21:17:38.144Z,-8.26
2022-12-18T21:20:18.003Z,-8.25
2022-12-18T21:22:47.183Z,-8.27
2022-12-18T21:25:15.118Z,-8.20
2022-12-18T21:27:42.821Z,-8.10
2022-12-18T21:30:11.245Z,-8.09
2022-12-18T21:32:38.594Z,-8.08
2022-12-18T21:35:06.756Z,-8.09
2022-12-18T21:37:34.424Z,-8.13
2022-12-18T21:40:02.103Z,-8.10
2022-12-18T21:42:48.329Z,-7.97
2022-12-18T21:45:16.337Z,-8.01
2022-12-18T21:47:44.038Z,-7.95
2022-12-18T21:50:12.100Z,-7.95
2022-12-18T21:52:39.710Z,-7.94
2022-12-18T21:55:09.928Z,-7.99
2022-12-18T21:57:38.998Z,-8.02
2022-12-18T22:00:11.569Z,-7.93
2022-12-18T22:02:46.318Z,-7.84
2022-12-18T22:05:16.973Z,-7.75
2022-12-18T22:07:44.289Z,-7.86
2022-12-18T22:10:11.936Z,-7.84
2022-12-18T22:12:41.646Z,-7.84
2022-12-18T22:15:14.741Z,-7.78
2022-12-18T22:17:51.246Z,-7.76
2022-12-18T22:20:25.074Z,-7.74
2022-12-18T22:22:54.115Z,-7.70
2022-12-18T22:25:21.755Z,-7.74
2022-12-18T22:28:08.857Z,-7.64
2022-12-18T22:30:36.482Z,-7.60
2022-12-18T22:33:04.216Z,-7.75
2022-12-18T22:35:32.124Z,-7.73
2022-12-18T22:38:00.264Z,-7.73
2022-12-18T22:40:28.846Z,-7.68
2022-12-18T22:42:56.488Z,-7.68
2022-12-18T22:45:25.738Z,-7.56
2022-12-18T22:47:53.469Z,-7.64
2022-12-18T22:50:21.193Z,-7.65
2022-12-18T22:52:48.431Z,-7.67
2022-12-18T22:55:16.134Z,-7.57
2022-12-18T22:57:48.530Z,-7.62
2022-12-18T23:00:23.809Z,-7.65
2022-12-18T23:02:59.385Z,-7.65
2022-12-18T23:05:30.850Z,-7.65
2022-12-18T23:07:58.687Z,-7.72
2022-12-18T23:10:27.520Z,-7.74
2022-12-18T23:12:54.848Z,-7.75
2022-12-18T23:15:27.773Z,-7.81
2022-12-18T23:17:57.770Z,-7.89
2022-12-18T23:20:27.329Z,-7.92
2022-12-18T23:22:54.586Z,-8.05
2022-12-18T23:25:22.175Z,-7.99
2022-12-18T23:27:49.348Z,-8.11
2022-12-18T23:30:17.033Z,-8.06
2022-12-18T23:32:44.463Z,-7.96
2022-12-18T23:35:15.597Z,-8.11
2022-12-18T23:38:00.478Z,-8.12
2022-12-18T23:40:29.914Z,-8.11
2022-12-18T23:42:58.540Z,-8.17
2022-12-18T23:45:26.009Z,-8.09
2022-12-18T23:47:53.181Z,-8.22
2022-12-18T23:50:25.435Z,-8.23
2022-12-18T23:52:57.695Z,-8.19
2022-12-18T23:55:37.351Z,-8.11
2022-12-18T23:58:04.514Z,-8.11
